createdAt,value
2018-06-05T00:01:23.389Z,9.70
2018-06-05T00:03:52.024Z,9.50
2018-06-05T00:06:20.771Z,9.10
2018-06-05T00:08:49.349Z,9.70
2018-06-05T00:11:17.958Z,9.10
2018-06-05T00:13:46.588Z,8.70
2018-06-05T00:16:15.197Z,8.57
2018-06-05T00:18:43.830Z,8.87
2018-06-05T00:21:12.472Z,9.10
2018-06-05T00:23:41.073Z,9.60
2018-06-05T00:26:09.672Z,9.23
2018-06-05T00:28:38.263Z,8.87
2018-06-05T00:31:06.936Z,9.13
2018-06-05T00:33:35.250Z,8.30
2018-06-05T00:36:03.856Z,8.63
2018-06-05T00:38:32.520Z,9.00
2018-06-05T00:41:01.156Z,8.80
2018-06-05T00:43:29.853Z,8.80
2018-06-05T00:45:58.493Z,9.80
2018-06-05T00:48:27.081Z,9.60
2018-06-05T00:50:55.785Z,9.20
2018-06-05T00:53:24.394Z,9.87
2018-06-05T00:55:53.005Z,9.60
2018-06-05T00:58:21.660Z,9.17
2018-06-05T01:00:50.254Z,9.43
2018-06-05T01:03:18.872Z,9.40
2018-06-05T01:05:47.512Z,9.60
2018-06-05T01:08:16.208Z,9.50
2018-06-05T01:10:44.820Z,10.00
2018-06-05T01:13:13.494Z,9.03
2018-06-05T01:15:42.181Z,10.60
2018-06-05T01:18:10.825Z,10.33
2018-06-05T01:20:39.493Z,9.70
2018-06-05T01:23:08.221Z,11.10
2018-06-05T01:25:36.760Z,9.07
2018-06-05T01:28:10.918Z,9.67
2018-06-05T01:30:39.738Z,9.70
2018-06-05T01:33:08.395Z,10.50
2018-06-05T01:35:36.984Z,9.67
2018-06-05T01:38:05.713Z,9.73
2018-06-05T01:40:34.355Z,9.97
2018-06-05T01:43:03.049Z,9.80
2018-06-05T01:45:31.635Z,10.77
2018-06-05T01:48:00.327Z,10.00
2018-06-05T01:50:28.996Z,9.63
2018-06-05T01:52:57.653Z,10.63
2018-06-05T01:55:26.248Z,10.40
2018-06-05T01:57:54.865Z,10.07
2018-06-05T02:00:23.486Z,9.80
2018-06-05T02:02:52.063Z,9.23
2018-06-05T02:05:20.681Z,10.30
2018-06-05T02:07:48.930Z,10.30
2018-06-05T02:10:17.490Z,10.83
2018-06-05T02:12:46.096Z,10.33
2018-06-05T02:15:14.773Z,10.13
2018-06-05T02:17:43.474Z,10.27
2018-06-05T02:20:12.095Z,10.67
2018-06-05T02:22:40.756Z,10.80
2018-06-05T02:25:09.412Z,10.20
2018-06-05T02:27:38.091Z,10.77
2018-06-05T02:30:06.729Z,10.27
2018-06-05T02:32:35.348Z,10.40
2018-06-05T02:35:04.051Z,11.37
2018-06-05T02:37:32.653Z,10.80
2018-06-05T02:40:01.237Z,12.17
2018-06-05T02:42:29.937Z,10.60
2018-06-05T02:44:58.576Z,11.80
2018-06-05T02:47:27.301Z,10.40
2018-06-05T02:49:55.989Z,11.33
2018-06-05T02:52:24.597Z,10.80
2018-06-05T02:54:53.235Z,10.73
2018-06-05T02:57:21.861Z,10.73
2018-06-05T02:59:50.508Z,11.40
2018-06-05T03:02:19.188Z,10.53
2018-06-05T03:04:47.925Z,10.70
2018-06-05T03:07:16.632Z,11.40
2018-06-05T03:09:45.374Z,10.77
2018-06-05T03:12:14.002Z,10.30
2018-06-05T03:14:42.565Z,10.73
2018-06-05T03:17:11.233Z,10.63
2018-06-05T03:31:28.917Z,11.40
2018-06-05T03:33:57.516Z,9.97
2018-06-05T03:36:26.172Z,11.17
2018-06-05T03:38:54.769Z,11.47
2018-06-05T03:41:23.369Z,10.40
2018-06-05T03:43:52.071Z,9.60
2018-06-05T03:46:20.698Z,10.97
2018-06-05T03:48:49.312Z,11.00
2018-06-05T03:51:18.022Z,10.37
2018-06-05T03:53:46.718Z,10.00
2018-06-05T03:56:15.614Z,9.60
2018-06-05T03:58:44.305Z,10.53
2018-06-05T04:01:12.962Z,10.40
2018-06-05T04:03:41.677Z,10.50
2018-06-05T04:06:10.309Z,10.43
2018-06-05T04:08:39.008Z,10.00
2018-06-05T04:11:07.618Z,10.30
2018-06-05T04:13:36.287Z,10.30
2018-06-05T04:16:04.991Z,9.70
2018-06-05T04:18:33.681Z,10.00
2018-06-05T04:21:09.890Z,10.23
2018-06-05T04:23:38.534Z,8.47
2018-06-05T04:26:07.289Z,9.03
2018-06-05T04:28:35.973Z,9.20
2018-06-05T04:31:04.600Z,8.77
2018-06-05T04:33:33.257Z,9.30
2018-06-05T04:36:01.904Z,8.17
2018-06-05T04:38:30.590Z,8.70
2018-06-05T04:40:59.221Z,9.07
2018-06-05T04:43:27.919Z,9.53
2018-06-05T04:45:56.568Z,8.30
2018-06-05T04:48:25.200Z,8.63
2018-06-05T04:50:53.805Z,8.87
2018-06-05T04:53:22.480Z,8.90
2018-06-05T04:55:51.165Z,8.77
2018-06-05T04:58:19.775Z,9.10
2018-06-05T05:00:48.516Z,8.73
2018-06-05T05:03:17.208Z,9.70
2018-06-05T05:05:45.832Z,9.40
2018-06-05T05:08:14.517Z,8.50
2018-06-05T05:10:43.106Z,9.13
2018-06-05T05:13:11.813Z,8.80
2018-06-05T05:15:40.429Z,8.63
2018-06-05T05:18:09.076Z,8.70
2018-06-05T05:20:37.678Z,9.10
2018-06-05T05:23:06.352Z,9.00
2018-06-05T05:25:34.996Z,8.80
2018-06-05T05:28:03.666Z,9.20
2018-06-05T05:30:32.273Z,7.70
2018-06-05T05:33:00.934Z,8.83
2018-06-05T05:35:29.565Z,8.70
2018-06-05T05:37:58.201Z,9.30
2018-06-05T05:40:26.848Z,8.80
2018-06-05T05:42:55.504Z,9.37
2018-06-05T05:45:24.143Z,9.50
2018-06-05T05:47:52.804Z,9.60
2018-06-05T05:50:21.457Z,8.43
2018-06-05T05:52:50.146Z,8.87
2018-06-05T05:55:18.875Z,9.10
2018-06-05T05:57:47.486Z,8.47
2018-06-05T06:00:16.216Z,9.00
2018-06-05T06:02:44.892Z,9.00
2018-06-05T06:05:13.507Z,9.23
2018-06-05T06:07:42.184Z,8.93
2018-06-05T06:10:10.905Z,9.53
2018-06-05T06:12:39.564Z,9.37
2018-06-05T06:15:08.151Z,9.03
2018-06-05T06:17:36.928Z,9.40
2018-06-05T06:20:05.609Z,8.93
2018-06-05T06:22:34.323Z,9.33
2018-06-05T06:25:02.963Z,9.37
2018-06-05T06:27:31.745Z,9.40
2018-06-05T06:30:00.477Z,10.40
2018-06-05T06:32:29.164Z,9.67
2018-06-05T06:34:57.834Z,9.63
2018-06-05T06:37:26.548Z,9.57
2018-06-05T06:39:55.259Z,10.70
2018-06-05T06:42:23.915Z,10.10
2018-06-05T06:44:52.611Z,9.87
2018-06-05T06:47:21.288Z,10.37
2018-06-05T06:49:49.957Z,9.97
2018-06-05T06:52:18.740Z,9.33
2018-06-05T06:54:47.411Z,9.90
2018-06-05T06:57:16.004Z,10.53
2018-06-05T06:59:44.572Z,9.87
2018-06-05T07:02:13.223Z,9.63
2018-06-05T07:04:41.882Z,10.97
2018-06-05T07:07:10.552Z,10.50
2018-06-05T07:09:39.209Z,10.10
2018-06-05T07:12:07.848Z,10.27
2018-06-05T07:14:36.511Z,9.57
2018-06-05T07:17:05.118Z,9.40
2018-06-05T07:19:33.774Z,9.60
2018-06-05T07:22:02.494Z,9.50
2018-06-05T07:24:31.174Z,9.60
2018-06-05T07:26:59.991Z,10.00
2018-06-05T07:29:28.585Z,9.13
2018-06-05T07:31:57.205Z,9.13
2018-06-05T07:34:25.938Z,8.70
2018-06-05T07:36:55.671Z,8.80
2018-06-05T07:39:24.426Z,8.57
2018-06-05T07:41:53.132Z,8.70
2018-06-05T07:44:21.831Z,8.13
2018-06-05T07:46:50.406Z,8.20
2018-06-05T07:49:19.041Z,7.90
2018-06-05T07:51:47.704Z,8.03
2018-06-05T07:54:16.281Z,7.57
2018-06-05T07:56:44.997Z,7.00
2018-06-05T07:59:13.676Z,7.40
2018-06-05T08:01:42.316Z,7.40
2018-06-05T08:04:10.955Z,8.60
2018-06-05T08:06:39.571Z,8.13
2018-06-05T08:09:09.082Z,7.80
2018-06-05T08:11:38.345Z,8.70
2018-06-05T08:14:07.008Z,8.37
2018-06-05T08:16:35.662Z,8.50
2018-06-05T08:19:04.331Z,8.33
2018-06-05T08:21:32.916Z,6.80
2018-06-05T08:24:01.598Z,8.20
2018-06-05T08:26:39.268Z,8.00
2018-06-05T08:29:07.884Z,7.73
2018-06-05T08:31:36.534Z,6.63
2018-06-05T08:34:05.213Z,7.60
2018-06-05T08:36:33.851Z,7.40
2018-06-05T08:39:02.515Z,6.60
2018-06-05T08:41:31.208Z,7.03
2018-06-05T08:43:59.811Z,6.73
2018-06-05T08:46:28.472Z,7.03
2018-06-05T08:48:57.086Z,7.03
2018-06-05T08:51:25.884Z,6.60
2018-06-05T08:53:54.496Z,6.23
2018-06-05T08:56:23.053Z,6.30
2018-06-05T08:58:51.757Z,5.97
2018-06-05T09:01:20.397Z,6.60
2018-06-05T09:03:49.025Z,6.90
2018-06-05T09:06:17.640Z,6.87
2018-06-05T09:08:46.184Z,7.20
2018-06-05T09:11:14.793Z,6.97
2018-06-05T09:13:43.461Z,6.67
2018-06-05T09:16:12.050Z,7.40
2018-06-05T09:18:40.738Z,6.33
2018-06-05T09:21:09.402Z,6.77
2018-06-05T09:23:38.003Z,6.80
2018-06-05T09:26:06.588Z,6.40
2018-06-05T09:28:35.221Z,6.90
2018-06-05T09:31:03.840Z,6.70
2018-06-05T09:33:32.460Z,5.90
2018-06-05T09:36:01.060Z,6.97
2018-06-05T09:38:29.686Z,6.20
2018-06-05T09:40:58.268Z,6.67
2018-06-05T09:43:26.827Z,7.20
2018-06-05T09:45:55.471Z,7.30
2018-06-05T09:48:24.070Z,6.97
2018-06-05T09:50:52.719Z,6.70
2018-06-05T09:53:21.941Z,6.13
2018-06-05T09:55:51.119Z,7.20
2018-06-05T09:58:19.888Z,8.00
2018-06-05T10:00:51.301Z,6.47
2018-06-05T10:03:21.019Z,6.47
2018-06-05T10:05:49.658Z,6.57
2018-06-05T10:08:18.415Z,7.33
2018-06-05T10:10:46.996Z,6.00
2018-06-05T10:13:15.666Z,5.90
2018-06-05T10:15:44.362Z,6.13
2018-06-05T10:18:13.023Z,6.00
2018-06-05T10:20:41.596Z,6.60
2018-06-05T10:23:10.249Z,7.20
2018-06-05T10:25:38.821Z,5.97
2018-06-05T10:28:07.478Z,6.60
2018-06-05T10:30:36.028Z,6.10
2018-06-05T10:33:04.670Z,6.57
2018-06-05T10:35:33.316Z,6.57
2018-06-05T10:38:01.885Z,6.20
2018-06-05T10:40:30.447Z,6.07
2018-06-05T10:42:59.048Z,6.20
2018-06-05T10:45:27.613Z,5.80
2018-06-05T10:47:56.232Z,5.43
2018-06-05T10:50:24.906Z,5.57
2018-06-05T10:52:53.502Z,5.70
2018-06-05T10:55:22.072Z,5.50
2018-06-05T10:57:50.760Z,5.40
2018-06-05T11:00:19.403Z,5.20
2018-06-05T11:02:47.975Z,5.60
2018-06-05T11:05:16.575Z,5.17
2018-06-05T11:07:45.136Z,5.37
2018-06-05T11:10:13.785Z,5.30
2018-06-05T11:12:42.414Z,5.00
2018-06-05T11:15:11.690Z,5.00
2018-06-05T11:17:40.309Z,5.50
2018-06-05T11:20:08.956Z,4.83
2018-06-05T11:22:37.522Z,4.20
2018-06-05T11:25:06.126Z,4.43
2018-06-05T11:27:34.708Z,3.30
2018-06-05T11:30:03.425Z,3.90
2018-06-05T11:32:32.053Z,4.40
2018-06-05T11:35:00.712Z,4.77
2018-06-05T11:37:29.336Z,4.73
2018-06-05T11:39:57.891Z,3.97
2018-06-05T11:42:26.497Z,3.90
2018-06-05T11:44:55.125Z,3.30
2018-06-05T11:47:23.781Z,3.80
2018-06-05T11:49:52.429Z,4.97
2018-06-05T11:52:21.025Z,4.80
2018-06-05T11:54:49.630Z,4.27
2018-06-05T11:57:18.189Z,4.53
2018-06-05T11:59:46.779Z,4.70
2018-06-05T12:02:15.472Z,4.93
2018-06-05T12:04:44.121Z,5.13
2018-06-05T12:07:12.753Z,5.90
2018-06-05T12:09:41.330Z,5.70
2018-06-05T12:12:10.092Z,6.30
2018-06-05T12:14:38.752Z,6.00
2018-06-05T12:17:07.466Z,5.90
2018-06-05T12:19:36.090Z,7.33
2018-06-05T12:22:04.744Z,6.30
2018-06-05T12:24:33.484Z,7.07
2018-06-05T12:27:02.165Z,6.63
2018-06-05T12:29:30.794Z,5.83
2018-06-05T12:31:59.401Z,5.57
2018-06-05T12:34:27.964Z,5.50
2018-06-05T12:36:56.605Z,5.40
2018-06-05T12:39:25.265Z,5.03
2018-06-05T12:41:53.963Z,5.43
2018-06-05T12:44:22.592Z,5.70
2018-06-05T12:46:51.294Z,5.77
2018-06-05T12:49:19.974Z,5.43
2018-06-05T12:51:48.699Z,5.60
2018-06-05T12:54:17.344Z,5.60
2018-06-05T12:56:46.029Z,5.97
2018-06-05T12:59:14.633Z,5.57
2018-06-05T13:01:43.261Z,5.43
2018-06-05T13:04:11.956Z,5.20
2018-06-05T13:06:40.593Z,4.63
2018-06-05T13:09:09.396Z,4.90
2018-06-05T13:11:38.096Z,4.77
2018-06-05T13:14:06.743Z,4.50
2018-06-05T13:16:35.329Z,4.97
2018-06-05T13:22:00.215Z,5.00
2018-06-05T13:24:28.889Z,5.17
2018-06-05T13:27:06.354Z,5.00
2018-06-05T13:29:35.109Z,4.90
2018-06-05T13:32:03.756Z,5.37
2018-06-05T13:34:32.353Z,5.67
2018-06-05T13:37:01.069Z,5.27
2018-06-05T13:39:29.683Z,4.80
2018-06-05T13:41:58.283Z,4.90
2018-06-05T13:44:26.803Z,4.80
2018-06-05T13:46:55.392Z,4.80
2018-06-05T13:49:23.904Z,4.80
2018-06-05T13:51:52.590Z,5.10
2018-06-05T13:54:21.209Z,4.87
2018-06-05T13:56:49.981Z,5.17
2018-06-05T13:59:18.593Z,5.53
2018-06-05T14:01:47.237Z,5.87
2018-06-05T14:04:15.897Z,5.93
2018-06-05T14:06:44.476Z,5.90
2018-06-05T14:09:17.312Z,6.33
2018-06-05T14:11:45.824Z,5.87
2018-06-05T14:14:14.411Z,5.43
2018-06-05T14:16:43.106Z,5.40
2018-06-05T14:19:12.955Z,5.43
2018-06-05T14:21:41.600Z,5.70
2018-06-05T14:24:20.680Z,5.00
2018-06-05T14:26:49.432Z,5.00
2018-06-05T14:29:18.009Z,5.30
2018-06-05T14:31:46.580Z,5.17
2018-06-05T14:34:16.311Z,5.00
2018-06-05T14:36:44.936Z,5.73
2018-06-05T14:39:13.738Z,5.90
2018-06-05T14:41:42.359Z,5.30
2018-06-05T14:44:11.091Z,5.37
2018-06-05T14:46:39.708Z,5.13
2018-06-05T14:49:08.392Z,5.20
2018-06-05T14:51:36.920Z,5.40
2018-06-05T14:54:05.452Z,5.37
2018-06-05T14:56:33.944Z,5.67
2018-06-05T14:59:02.533Z,6.00
2018-06-05T15:04:23.977Z,5.63
2018-06-05T15:06:52.733Z,5.80
2018-06-05T15:09:21.296Z,5.80
2018-06-05T15:11:49.911Z,5.60
2018-06-05T15:14:18.471Z,6.37
2018-06-05T15:16:47.145Z,5.30
2018-06-05T15:19:15.740Z,6.00
2018-06-05T15:21:44.277Z,6.03
2018-06-05T15:24:13.957Z,5.60
2018-06-05T15:26:50.343Z,6.43
2018-06-05T15:29:22.727Z,6.50
2018-06-05T15:31:51.374Z,6.00
2018-06-05T15:34:21.973Z,6.17
2018-06-05T15:36:50.549Z,6.00
2018-06-05T15:39:19.286Z,5.90
2018-06-05T15:41:47.857Z,6.07
2018-06-05T15:44:16.545Z,6.40
2018-06-05T15:46:45.138Z,6.53
2018-06-05T15:49:13.766Z,6.37
2018-06-05T15:51:42.451Z,7.30
2018-06-05T15:54:11.225Z,6.90
2018-06-05T15:56:39.827Z,7.07
2018-06-05T15:59:08.462Z,6.83
2018-06-05T16:01:38.019Z,8.20
2018-06-05T16:04:06.701Z,7.50
2018-06-05T16:06:35.473Z,7.10
2018-06-05T16:09:06.014Z,8.00
2018-06-05T16:11:34.637Z,8.67
2018-06-05T16:14:03.362Z,8.03
2018-06-05T16:16:31.672Z,7.90
2018-06-05T16:19:00.319Z,8.37
2018-06-05T16:21:28.977Z,9.47
2018-06-05T16:23:57.598Z,9.50
2018-06-05T16:26:26.318Z,8.87
2018-06-05T16:28:54.885Z,10.07
2018-06-05T16:31:23.521Z,9.60
2018-06-05T16:33:52.161Z,9.90
2018-06-05T16:36:23.860Z,10.00
2018-06-05T16:38:52.565Z,9.17
2018-06-05T16:41:21.173Z,8.77
2018-06-05T16:43:49.808Z,9.03
2018-06-05T16:46:18.427Z,9.47
2018-06-05T16:48:47.087Z,8.97
2018-06-05T16:51:15.780Z,9.23
2018-06-05T16:53:44.469Z,9.43
2018-06-05T16:56:13.108Z,9.17
2018-06-05T16:58:41.741Z,10.10
2018-06-05T17:01:10.482Z,9.53
2018-06-05T17:03:39.305Z,9.83
2018-06-05T17:06:07.942Z,10.00
2018-06-05T17:08:36.601Z,9.47
2018-06-05T17:11:05.317Z,10.00
2018-06-05T17:13:34.000Z,9.90
2018-06-05T17:16:02.704Z,9.30
2018-06-05T17:18:31.352Z,9.57
2018-06-05T17:21:00.080Z,9.90
2018-06-05T17:23:28.783Z,9.03
2018-06-05T17:25:57.455Z,9.30
2018-06-05T17:28:26.093Z,9.70
2018-06-05T17:30:54.792Z,9.73
2018-06-05T17:33:23.441Z,10.57
2018-06-05T17:35:52.094Z,10.00
2018-06-05T17:38:20.789Z,9.50
2018-06-05T17:40:49.424Z,10.17
2018-06-05T17:43:18.142Z,9.33
2018-06-05T17:45:46.771Z,10.10
2018-06-05T17:48:15.471Z,10.37
2018-06-05T17:50:44.209Z,10.27
2018-06-05T17:53:29.474Z,10.40
2018-06-05T17:55:58.142Z,9.93
2018-06-05T17:58:26.795Z,10.10
2018-06-05T18:00:55.790Z,9.97
2018-06-05T18:03:24.503Z,9.53
2018-06-05T18:05:53.202Z,10.50
2018-06-05T18:08:21.973Z,9.67
2018-06-05T18:10:50.694Z,9.57
2018-06-05T18:13:19.340Z,10.40
2018-06-05T18:15:48.090Z,9.97
2018-06-05T18:18:16.892Z,10.37
2018-06-05T18:20:45.785Z,9.17
2018-06-05T18:23:27.460Z,10.83
2018-06-05T18:25:56.251Z,10.87
2018-06-05T18:34:16.758Z,10.57
2018-06-05T18:36:45.599Z,11.00
2018-06-05T18:39:14.390Z,11.30
2018-06-05T18:42:00.768Z,10.83
2018-06-05T18:44:29.064Z,11.00
2018-06-05T18:46:57.681Z,10.87
2018-06-05T18:49:30.269Z,10.80
2018-06-05T18:52:04.042Z,10.90
2018-06-05T18:54:38.755Z,11.43
2018-06-05T18:57:08.390Z,11.90
2018-06-05T18:59:36.996Z,10.80
2018-06-05T19:02:07.978Z,11.17
2018-06-05T19:04:36.741Z,12.00
2018-06-05T19:07:05.440Z,11.77
2018-06-05T19:09:34.111Z,12.10
2018-06-05T19:12:14.208Z,10.53
2018-06-05T19:14:42.929Z,11.40
2018-06-05T19:17:11.741Z,11.83
2018-06-05T19:19:40.364Z,12.53
2018-06-05T19:22:09.162Z,12.00
2018-06-05T19:24:37.852Z,12.77
2018-06-05T19:27:06.676Z,12.43
2018-06-05T19:32:33.499Z,11.67
2018-06-05T19:35:02.186Z,11.53
2018-06-05T19:37:30.824Z,12.87
2018-06-05T19:39:59.615Z,12.80
2018-06-05T19:42:30.331Z,12.90
2018-06-05T19:44:59.065Z,13.00
2018-06-05T19:47:27.808Z,12.70
2018-06-05T19:49:56.516Z,12.93
2018-06-05T19:52:25.639Z,12.90
2018-06-05T19:54:54.312Z,13.30
2018-06-05T19:57:23.082Z,13.43
2018-06-05T19:59:51.907Z,13.00
2018-06-05T20:02:20.571Z,13.30
2018-06-05T20:04:49.242Z,13.20
2018-06-05T20:07:17.888Z,12.47
2018-06-05T20:09:46.521Z,12.00
2018-06-05T20:12:15.322Z,11.90
2018-06-05T20:14:44.146Z,12.53
2018-06-05T20:17:12.816Z,13.20
2018-06-05T20:19:41.569Z,13.10
2018-06-05T20:22:10.275Z,13.17
2018-06-05T20:24:38.923Z,13.87
2018-06-05T20:27:07.588Z,14.47
2018-06-05T20:29:36.285Z,13.63
2018-06-05T20:32:05.037Z,13.50
2018-06-05T20:34:33.811Z,13.60
2018-06-05T20:37:02.550Z,12.97
2018-06-05T20:39:31.376Z,13.60
2018-06-05T20:42:00.125Z,13.27
2018-06-05T20:44:28.966Z,13.40
2018-06-05T20:46:57.695Z,13.70
2018-06-05T20:49:26.365Z,14.27
2018-06-05T20:51:55.158Z,15.17
2018-06-05T20:54:23.786Z,12.93
2018-06-05T20:56:51.998Z,13.10
2018-06-05T20:59:20.632Z,14.70
2018-06-05T21:01:49.316Z,13.27
2018-06-05T21:04:17.997Z,13.23
2018-06-05T21:06:46.645Z,14.20
2018-06-05T21:09:15.295Z,13.20
2018-06-05T21:11:43.969Z,13.73
2018-06-05T21:14:12.631Z,13.03
2018-06-05T21:16:41.303Z,13.20
2018-06-05T21:19:10.003Z,13.30
2018-06-05T21:21:38.653Z,14.10
2018-06-05T21:24:07.332Z,13.33
2018-06-05T21:26:35.943Z,12.83
2018-06-05T21:29:04.627Z,13.10
2018-06-05T21:31:33.174Z,26.93
2018-06-05T21:34:02.006Z,16.63
2018-06-05T21:36:30.688Z,15.63
2018-06-05T21:38:59.292Z,14.63
2018-06-05T21:41:27.876Z,12.27
2018-06-05T21:43:56.529Z,13.27
2018-06-05T21:46:25.268Z,14.60
2018-06-05T21:48:53.922Z,14.07
2018-06-05T21:51:22.594Z,15.03
2018-06-05T21:53:51.292Z,14.37
2018-06-05T21:56:19.888Z,14.20
2018-06-05T21:58:48.501Z,14.70
2018-06-05T22:01:17.136Z,14.17
2018-06-05T22:03:45.795Z,13.20
2018-06-05T22:06:14.478Z,12.00
2018-06-05T22:08:43.119Z,13.60
2018-06-05T22:11:11.683Z,14.27
2018-06-05T22:13:40.357Z,14.10
2018-06-05T22:16:09.146Z,14.47
2018-06-05T22:18:37.864Z,14.10
2018-06-05T22:21:06.432Z,14.53
2018-06-05T22:23:35.077Z,13.30
2018-06-05T22:26:03.685Z,13.03
2018-06-05T22:28:32.299Z,14.20
2018-06-05T22:31:00.939Z,13.53
2018-06-05T22:33:29.561Z,14.17
2018-06-05T22:35:58.236Z,13.27
2018-06-05T22:38:26.861Z,13.87
2018-06-05T22:40:55.531Z,13.47
2018-06-05T22:43:24.176Z,13.80
2018-06-05T22:45:52.828Z,13.50
2018-06-05T22:48:21.457Z,13.73
2018-06-05T22:50:50.070Z,13.07
2018-06-05T22:53:18.747Z,13.47
2018-06-05T22:55:47.394Z,15.37
2018-06-05T22:58:16.050Z,13.93
2018-06-05T23:00:44.744Z,13.90
2018-06-05T23:03:13.343Z,14.10
2018-06-05T23:05:42.117Z,14.60
2018-06-05T23:08:10.765Z,14.40
2018-06-05T23:10:39.354Z,14.40
2018-06-05T23:13:07.928Z,14.67
2018-06-05T23:15:36.497Z,14.87
2018-06-05T23:18:05.103Z,15.70
2018-06-05T23:20:33.793Z,16.67
2018-06-05T23:23:02.413Z,15.40
2018-06-05T23:25:31.108Z,15.60
2018-06-05T23:27:59.746Z,13.80
2018-06-05T23:30:28.470Z,15.63
2018-06-05T23:32:57.165Z,16.40
2018-06-05T23:35:25.995Z,16.50
2018-06-05T23:37:54.621Z,16.97
2018-06-05T23:40:23.272Z,16.70
2018-06-05T23:42:51.935Z,14.90
2018-06-05T23:45:20.532Z,17.87
2018-06-05T23:47:49.158Z,16.23
2018-06-05T23:50:17.717Z,15.90
2018-06-05T23:52:46.506Z,17.13
2018-06-05T23:55:15.167Z,17.27
2018-06-05T23:57:43.772Z,16.77
